Terminal Aerodrome Forecast
Issued by NWS

Home | Current Version | Previous Version | Text Only | Print | Product List | Glossary On
Versions: 1 2 3 4 5 6 7 8 9 10 11 12 13 14 15
734
FTUS41 KAKQ 282328
TAFPHF
TAF
KPHF 282328Z 2900/2924 21011KT P6SM SKC
     FM290400 20008KT P6SM SCT250
     FM290700 21008KT P6SM SCT012
     FM291600 23011KT P6SM SCT040 SCT250=

USA.gov is the U.S. government's official web portal to all federal, state and local government web resources and services.